sensor_id;sensor_type;location;lat;lon;timestamp;P1;durP1;ratioP1;P2;durP2;ratioP2
64868;SDS011;51349;52.424;10.840;2023-04-03T00:02:21;1.87;;;1.20;;
64868;SDS011;51349;52.424;10.840;2023-04-03T00:07:22;3.13;;;1.20;;
64868;SDS011;51349;52.424;10.840;2023-04-03T00:12:22;2.67;;;1.40;;
64868;SDS011;51349;52.424;10.840;2023-04-03T00:17:23;3.00;;;1.43;;
64868;SDS011;51349;52.424;10.840;2023-04-03T00:22:24;3.07;;;1.17;;
64868;SDS011;51349;52.424;10.840;2023-04-03T00:27:26;3.67;;;1.20;;
64868;SDS011;51349;52.424;10.840;2023-04-03T00:32:27;2.30;;;1.20;;
64868;SDS011;51349;52.424;10.840;2023-04-03T00:37:27;2.47;;;1.20;;
64868;SDS011;51349;52.424;10.840;2023-04-03T00:42:28;1.90;;;1.00;;
64868;SDS011;51349;52.424;10.840;2023-04-03T00:47:29;2.37;;;1.40;;
64868;SDS011;51349;52.424;10.840;2023-04-03T00:52:31;3.83;;;2.00;;
64868;SDS011;51349;52.424;10.840;2023-04-03T00:57:32;3.60;;;2.37;;
64868;SDS011;51349;52.424;10.840;2023-04-03T01:02:33;3.33;;;2.90;;
64868;SDS011;51349;52.424;10.840;2023-04-03T01:07:34;3.10;;;2.70;;
64868;SDS011;51349;52.424;10.840;2023-04-03T01:12:37;4.20;;;2.40;;
64868;SDS011;51349;52.424;10.840;2023-04-03T01:28:08;3.90;;;2.20;;
64868;SDS011;51349;52.424;10.840;2023-04-03T01:33:11;3.87;;;2.10;;
64868;SDS011;51349;52.424;10.840;2023-04-03T01:38:11;4.70;;;1.97;;
64868;SDS011;51349;52.424;10.840;2023-04-03T01:43:12;2.83;;;1.70;;
64868;SDS011;51349;52.424;10.840;2023-04-03T01:48:12;1.97;;;1.63;;
64868;SDS011;51349;52.424;10.840;2023-04-03T01:53:16;1.33;;;1.13;;
64868;SDS011;51349;52.424;10.840;2023-04-03T01:58:17;4.17;;;1.30;;
64868;SDS011;51349;52.424;10.840;2023-04-03T02:03:17;1.93;;;1.40;;
64868;SDS011;51349;52.424;10.840;2023-04-03T02:08:18;3.63;;;1.27;;
64868;SDS011;51349;52.424;10.840;2023-04-03T02:13:19;3.90;;;1.20;;
64868;SDS011;51349;52.424;10.840;2023-04-03T02:18:20;3.17;;;1.60;;
64868;SDS011;51349;52.424;10.840;2023-04-03T02:23:20;4.23;;;1.60;;
64868;SDS011;51349;52.424;10.840;2023-04-03T02:28:21;1.90;;;1.17;;
64868;SDS011;51349;52.424;10.840;2023-04-03T02:33:22;1.80;;;1.13;;
64868;SDS011;51349;52.424;10.840;2023-04-03T02:38:23;1.77;;;1.30;;
64868;SDS011;51349;52.424;10.840;2023-04-03T02:43:24;1.93;;;1.30;;
64868;SDS011;51349;52.424;10.840;2023-04-03T02:48:25;2.13;;;1.27;;
64868;SDS011;51349;52.424;10.840;2023-04-03T02:53:26;1.30;;;1.20;;
64868;SDS011;51349;52.424;10.840;2023-04-03T02:58:26;1.20;;;1.10;;
64868;SDS011;51349;52.424;10.840;2023-04-03T03:03:30;1.53;;;1.20;;
64868;SDS011;51349;52.424;10.840;2023-04-03T03:08:30;2.30;;;1.30;;
64868;SDS011;51349;52.424;10.840;2023-04-03T03:13:31;1.90;;;1.10;;
64868;SDS011;51349;52.424;10.840;2023-04-03T03:18:33;3.30;;;1.00;;
64868;SDS011;51349;52.424;10.840;2023-04-03T03:23:34;3.07;;;1.20;;
64868;SDS011;51349;52.424;10.840;2023-04-03T03:28:35;3.30;;;1.50;;
64868;SDS011;51349;52.424;10.840;2023-04-03T03:33:37;2.57;;;1.60;;
64868;SDS011;51349;52.424;10.840;2023-04-03T03:38:38;1.73;;;1.27;;
64868;SDS011;51349;52.424;10.840;2023-04-03T03:43:39;1.97;;;1.03;;
64868;SDS011;51349;52.424;10.840;2023-04-03T03:48:39;2.73;;;1.43;;
64868;SDS011;51349;52.424;10.840;2023-04-03T03:53:40;1.80;;;1.27;;
64868;SDS011;51349;52.424;10.840;2023-04-03T03:58:41;1.70;;;1.10;;
64868;SDS011;51349;52.424;10.840;2023-04-03T04:03:41;3.93;;;1.30;;
64868;SDS011;51349;52.424;10.840;2023-04-03T04:08:42;3.40;;;1.20;;
64868;SDS011;51349;52.424;10.840;2023-04-03T04:13:43;6.20;;;1.40;;
64868;SDS011;51349;52.424;10.840;2023-04-03T04:18:43;2.33;;;1.20;;
64868;SDS011;51349;52.424;10.840;2023-04-03T04:23:44;1.30;;;1.20;;
64868;SDS011;51349;52.424;10.840;2023-04-03T04:28:45;2.80;;;1.27;;
64868;SDS011;51349;52.424;10.840;2023-04-03T04:33:46;1.10;;;1.00;;
64868;SDS011;51349;52.424;10.840;2023-04-03T04:38:47;4.87;;;1.37;;
64868;SDS011;51349;52.424;10.840;2023-04-03T04:43:48;2.33;;;1.47;;
64868;SDS011;51349;52.424;10.840;2023-04-03T04:48:49;4.27;;;1.53;;
64868;SDS011;51349;52.424;10.840;2023-04-03T04:53:50;4.67;;;1.43;;
64868;SDS011;51349;52.424;10.840;2023-04-03T04:58:51;1.83;;;1.40;;
64868;SDS011;51349;52.424;10.840;2023-04-03T05:03:52;5.77;;;1.63;;
64868;SDS011;51349;52.424;10.840;2023-04-03T05:08:52;3.17;;;2.17;;
64868;SDS011;51349;52.424;10.840;2023-04-03T05:13:53;3.30;;;2.60;;
64868;SDS011;51349;52.424;10.840;2023-04-03T05:18:53;5.63;;;2.67;;
64868;SDS011;51349;52.424;10.840;2023-04-03T05:23:54;2.63;;;1.90;;
64868;SDS011;51349;52.424;10.840;2023-04-03T05:28:55;2.70;;;1.83;;
64868;SDS011;51349;52.424;10.840;2023-04-03T05:33:56;3.53;;;1.60;;
64868;SDS011;51349;52.424;10.840;2023-04-03T05:38:57;3.03;;;1.97;;
64868;SDS011;51349;52.424;10.840;2023-04-03T05:43:58;2.33;;;1.87;;
64868;SDS011;51349;52.424;10.840;2023-04-03T05:48:58;3.17;;;2.00;;
64868;SDS011;51349;52.424;10.840;2023-04-03T05:59:20;2.87;;;2.00;;
64868;SDS011;51349;52.424;10.840;2023-04-03T06:04:21;5.27;;;1.93;;
64868;SDS011;51349;52.424;10.840;2023-04-03T06:09:23;2.77;;;1.60;;
64868;SDS011;51349;52.424;10.840;2023-04-03T06:14:25;4.97;;;1.60;;
64868;SDS011;51349;52.424;10.840;2023-04-03T06:19:26;5.93;;;1.50;;
64868;SDS011;51349;52.424;10.840;2023-04-03T06:24:28;4.57;;;1.90;;
64868;SDS011;51349;52.424;10.840;2023-04-03T06:29:30;4.50;;;1.80;;
64868;SDS011;51349;52.424;10.840;2023-04-03T06:34:31;1.10;;;1.10;;
64868;SDS011;51349;52.424;10.840;2023-04-03T06:39:32;4.00;;;1.33;;
64868;SDS011;51349;52.424;10.840;2023-04-03T06:44:32;2.30;;;1.30;;
64868;SDS011;51349;52.424;10.840;2023-04-03T06:49:34;2.60;;;1.07;;
64868;SDS011;51349;52.424;10.840;2023-04-03T06:54:37;2.40;;;1.30;;
64868;SDS011;51349;52.424;10.840;2023-04-03T06:59:38;1.43;;;1.10;;
64868;SDS011;51349;52.424;10.840;2023-04-03T07:04:39;0.87;;;0.83;;
64868;SDS011;51349;52.424;10.840;2023-04-03T07:09:39;2.87;;;1.33;;
64868;SDS011;51349;52.424;10.840;2023-04-03T07:14:40;3.90;;;2.53;;
64868;SDS011;51349;52.424;10.840;2023-04-03T07:19:41;2.03;;;0.87;;
64868;SDS011;51349;52.424;10.840;2023-04-03T07:24:42;3.00;;;1.70;;
64868;SDS011;51349;52.424;10.840;2023-04-03T07:29:43;1.43;;;0.97;;
64868;SDS011;51349;52.424;10.840;2023-04-03T07:34:44;3.13;;;1.60;;
64868;SDS011;51349;52.424;10.840;2023-04-03T07:39:44;1.67;;;1.07;;
64868;SDS011;51349;52.424;10.840;2023-04-03T07:44:45;2.70;;;0.97;;
64868;SDS011;51349;52.424;10.840;2023-04-03T07:49:46;1.37;;;0.93;;
64868;SDS011;51349;52.424;10.840;2023-04-03T07:54:47;2.20;;;1.20;;
64868;SDS011;51349;52.424;10.840;2023-04-03T07:59:47;1.83;;;1.10;;
64868;SDS011;51349;52.424;10.840;2023-04-03T08:04:48;1.80;;;0.80;;
64868;SDS011;51349;52.424;10.840;2023-04-03T08:09:49;2.17;;;0.70;;
64868;SDS011;51349;52.424;10.840;2023-04-03T08:14:49;5.10;;;1.10;;
64868;SDS011;51349;52.424;10.840;2023-04-03T08:19:50;3.10;;;1.73;;
64868;SDS011;51349;52.424;10.840;2023-04-03T08:24:51;0.80;;;0.80;;
64868;SDS011;51349;52.424;10.840;2023-04-03T08:29:52;3.70;;;1.43;;
64868;SDS011;51349;52.424;10.840;2023-04-03T08:34:53;2.07;;;1.07;;
64868;SDS011;51349;52.424;10.840;2023-04-03T08:39:53;4.60;;;1.77;;
64868;SDS011;51349;52.424;10.840;2023-04-03T08:50:12;3.07;;;1.40;;
64868;SDS011;51349;52.424;10.840;2023-04-03T08:55:28;2.23;;;1.17;;
64868;SDS011;51349;52.424;10.840;2023-04-03T09:06:11;1.33;;;0.80;;
64868;SDS011;51349;52.424;10.840;2023-04-03T09:11:22;3.33;;;1.60;;
64868;SDS011;51349;52.424;10.840;2023-04-03T09:21:45;2.40;;;1.10;;
64868;SDS011;51349;52.424;10.840;2023-04-03T09:27:00;2.67;;;1.20;;
64868;SDS011;51349;52.424;10.840;2023-04-03T09:32:11;1.63;;;1.30;;
64868;SDS011;51349;52.424;10.840;2023-04-03T09:42:40;3.10;;;1.33;;
64868;SDS011;51349;52.424;10.840;2023-04-03T09:47:42;2.43;;;1.07;;
64868;SDS011;51349;52.424;10.840;2023-04-03T09:52:45;1.00;;;0.90;;
64868;SDS011;51349;52.424;10.840;2023-04-03T09:57:51;1.83;;;1.00;;
64868;SDS011;51349;52.424;10.840;2023-04-03T10:02:56;1.53;;;1.00;;
64868;SDS011;51349;52.424;10.840;2023-04-03T10:13:19;1.37;;;1.07;;
64868;SDS011;51349;52.424;10.840;2023-04-03T10:23:42;1.17;;;1.00;;
64868;SDS011;51349;52.424;10.840;2023-04-03T10:44:41;2.37;;;1.10;;
64868;SDS011;51349;52.424;10.840;2023-04-03T10:49:56;2.00;;;1.20;;
64868;SDS011;51349;52.424;10.840;2023-04-03T10:55:30;1.20;;;1.10;;
64868;SDS011;51349;52.424;10.840;2023-04-03T11:00:45;0.87;;;0.77;;
64868;SDS011;51349;52.424;10.840;2023-04-03T11:05:49;1.37;;;1.20;;
64868;SDS011;51349;52.424;10.840;2023-04-03T11:11:00;2.07;;;1.20;;
64868;SDS011;51349;52.424;10.840;2023-04-03T11:16:08;1.40;;;1.30;;
64868;SDS011;51349;52.424;10.840;2023-04-03T11:21:22;2.50;;;1.70;;
64868;SDS011;51349;52.424;10.840;2023-04-03T11:26:43;1.67;;;1.57;;
64868;SDS011;51349;52.424;10.840;2023-04-03T11:37:26;2.20;;;1.70;;
64868;SDS011;51349;52.424;10.840;2023-04-03T11:42:37;1.30;;;1.20;;
64868;SDS011;51349;52.424;10.840;2023-04-03T11:47:48;2.43;;;1.50;;
64868;SDS011;51349;52.424;10.840;2023-04-03T12:03:00;1.57;;;1.20;;
64868;SDS011;51349;52.424;10.840;2023-04-03T12:18:57;2.93;;;1.20;;
64868;SDS011;51349;52.424;10.840;2023-04-03T12:24:23;1.30;;;1.20;;
64868;SDS011;51349;52.424;10.840;2023-04-03T12:40:26;2.37;;;1.20;;
64868;SDS011;51349;52.424;10.840;2023-04-03T12:51:00;1.90;;;1.30;;
64868;SDS011;51349;52.424;10.840;2023-04-03T12:56:21;2.03;;;0.90;;
64868;SDS011;51349;52.424;10.840;2023-04-03T13:01:26;1.63;;;1.52;;
64868;SDS011;51349;52.424;10.840;2023-04-03T13:06:28;2.53;;;1.30;;
64868;SDS011;51349;52.424;10.840;2023-04-03T13:11:37;1.70;;;1.13;;
64868;SDS011;51349;52.424;10.840;2023-04-03T13:16:41;1.10;;;1.00;;
64868;SDS011;51349;52.424;10.840;2023-04-03T13:21:54;2.88;;;1.13;;
64868;SDS011;51349;52.424;10.840;2023-04-03T13:27:01;1.60;;;1.02;;
64868;SDS011;51349;52.424;10.840;2023-04-03T13:32:03;1.50;;;1.40;;
64868;SDS011;51349;52.424;10.840;2023-04-03T13:37:05;2.22;;;1.10;;
64868;SDS011;51349;52.424;10.840;2023-04-03T13:42:22;2.35;;;1.15;;
64868;SDS011;51349;52.424;10.840;2023-04-03T13:47:24;2.03;;;1.10;;
64868;SDS011;51349;52.424;10.840;2023-04-03T13:52:30;1.97;;;1.30;;
64868;SDS011;51349;52.424;10.840;2023-04-03T13:57:32;1.67;;;0.95;;
64868;SDS011;51349;52.424;10.840;2023-04-03T14:02:33;1.63;;;1.20;;
64868;SDS011;51349;52.424;10.840;2023-04-03T14:07:34;1.17;;;1.07;;
64868;SDS011;51349;52.424;10.840;2023-04-03T14:12:36;1.90;;;0.98;;
64868;SDS011;51349;52.424;10.840;2023-04-03T14:17:39;0.63;;;0.63;;
64868;SDS011;51349;52.424;10.840;2023-04-03T14:22:40;1.80;;;1.02;;
64868;SDS011;51349;52.424;10.840;2023-04-03T14:27:42;2.72;;;1.20;;
64868;SDS011;51349;52.424;10.840;2023-04-03T14:32:44;2.53;;;1.23;;
64868;SDS011;51349;52.424;10.840;2023-04-03T14:37:46;1.50;;;1.07;;
64868;SDS011;51349;52.424;10.840;2023-04-03T14:42:48;0.55;;;0.52;;
64868;SDS011;51349;52.424;10.840;2023-04-03T14:47:49;1.95;;;0.90;;
64868;SDS011;51349;52.424;10.840;2023-04-03T14:52:53;1.20;;;1.02;;
64868;SDS011;51349;52.424;10.840;2023-04-03T14:57:56;2.72;;;1.10;;
64868;SDS011;51349;52.424;10.840;2023-04-03T15:02:57;1.03;;;0.80;;
64868;SDS011;51349;52.424;10.840;2023-04-03T15:07:58;1.40;;;1.10;;
64868;SDS011;51349;52.424;10.840;2023-04-03T15:13:00;1.35;;;1.13;;
64868;SDS011;51349;52.424;10.840;2023-04-03T15:18:01;1.20;;;1.10;;
64868;SDS011;51349;52.424;10.840;2023-04-03T15:23:02;1.52;;;0.90;;
64868;SDS011;51349;52.424;10.840;2023-04-03T15:28:02;1.45;;;1.00;;
64868;SDS011;51349;52.424;10.840;2023-04-03T15:33:03;2.00;;;1.38;;
64868;SDS011;51349;52.424;10.840;2023-04-03T15:38:04;1.33;;;1.23;;
64868;SDS011;51349;52.424;10.840;2023-04-03T15:43:05;2.20;;;1.13;;
64868;SDS011;51349;52.424;10.840;2023-04-03T15:48:07;3.33;;;1.20;;
64868;SDS011;51349;52.424;10.840;2023-04-03T15:53:09;3.10;;;1.10;;
64868;SDS011;51349;52.424;10.840;2023-04-03T15:58:10;2.63;;;1.30;;
64868;SDS011;51349;52.424;10.840;2023-04-03T16:03:12;2.13;;;1.00;;
64868;SDS011;51349;52.424;10.840;2023-04-03T16:08:17;2.22;;;1.25;;
64868;SDS011;51349;52.424;10.840;2023-04-03T16:13:18;2.47;;;0.98;;
64868;SDS011;51349;52.424;10.840;2023-04-03T16:18:18;2.03;;;1.50;;
64868;SDS011;51349;52.424;10.840;2023-04-03T16:23:25;1.33;;;1.23;;
64868;SDS011;51349;52.424;10.840;2023-04-03T16:28:26;3.25;;;1.25;;
64868;SDS011;51349;52.424;10.840;2023-04-03T16:33:26;2.42;;;1.40;;
64868;SDS011;51349;52.424;10.840;2023-04-03T16:38:27;2.63;;;1.30;;
64868;SDS011;51349;52.424;10.840;2023-04-03T16:43:31;4.22;;;1.45;;
64868;SDS011;51349;52.424;10.840;2023-04-03T16:48:33;2.75;;;1.50;;
64868;SDS011;51349;52.424;10.840;2023-04-03T16:53:34;2.22;;;1.48;;
64868;SDS011;51349;52.424;10.840;2023-04-03T16:58:35;1.92;;;1.40;;
64868;SDS011;51349;52.424;10.840;2023-04-03T17:03:36;2.45;;;1.50;;
64868;SDS011;51349;52.424;10.840;2023-04-03T17:08:37;6.13;;;1.48;;
64868;SDS011;51349;52.424;10.840;2023-04-03T17:13:37;1.45;;;1.30;;
64868;SDS011;51349;52.424;10.840;2023-04-03T17:18:38;4.47;;;1.42;;
64868;SDS011;51349;52.424;10.840;2023-04-03T17:23:40;1.33;;;1.20;;
64868;SDS011;51349;52.424;10.840;2023-04-03T17:28:44;1.55;;;1.30;;
64868;SDS011;51349;52.424;10.840;2023-04-03T17:33:45;2.37;;;1.23;;
64868;SDS011;51349;52.424;10.840;2023-04-03T17:38:46;1.93;;;1.30;;
64868;SDS011;51349;52.424;10.840;2023-04-03T17:43:47;5.50;;;1.70;;
64868;SDS011;51349;52.424;10.840;2023-04-03T17:48:48;2.03;;;1.30;;
64868;SDS011;51349;52.424;10.840;2023-04-03T17:53:49;2.10;;;1.67;;
64868;SDS011;51349;52.424;10.840;2023-04-03T17:58:50;2.50;;;2.10;;
64868;SDS011;51349;52.424;10.840;2023-04-03T18:03:52;2.53;;;2.33;;
64868;SDS011;51349;52.424;10.840;2023-04-03T18:08:54;3.67;;;2.37;;
64868;SDS011;51349;52.424;10.840;2023-04-03T18:14:00;4.07;;;3.63;;
64868;SDS011;51349;52.424;10.840;2023-04-03T18:19:04;4.53;;;2.10;;
64868;SDS011;51349;52.424;10.840;2023-04-03T18:24:06;2.33;;;1.90;;
64868;SDS011;51349;52.424;10.840;2023-04-03T18:29:12;3.67;;;2.00;;
64868;SDS011;51349;52.424;10.840;2023-04-03T18:34:15;4.27;;;2.00;;
64868;SDS011;51349;52.424;10.840;2023-04-03T18:39:15;5.20;;;2.30;;
64868;SDS011;51349;52.424;10.840;2023-04-03T18:44:17;2.30;;;2.07;;
64868;SDS011;51349;52.424;10.840;2023-04-03T18:49:20;8.13;;;3.20;;
64868;SDS011;51349;52.424;10.840;2023-04-03T18:54:20;4.23;;;3.83;;
64868;SDS011;51349;52.424;10.840;2023-04-03T18:59:21;5.87;;;4.43;;
64868;SDS011;51349;52.424;10.840;2023-04-03T19:04:22;28.27;;;15.27;;
64868;SDS011;51349;52.424;10.840;2023-04-03T19:09:23;25.07;;;12.57;;
64868;SDS011;51349;52.424;10.840;2023-04-03T19:14:25;14.20;;;9.13;;
64868;SDS011;51349;52.424;10.840;2023-04-03T19:19:25;16.77;;;8.93;;
64868;SDS011;51349;52.424;10.840;2023-04-03T19:24:26;8.23;;;6.00;;
64868;SDS011;51349;52.424;10.840;2023-04-03T19:29:27;8.83;;;6.30;;
64868;SDS011;51349;52.424;10.840;2023-04-03T19:34:28;6.20;;;5.07;;
64868;SDS011;51349;52.424;10.840;2023-04-03T19:39:31;7.57;;;6.03;;
64868;SDS011;51349;52.424;10.840;2023-04-03T19:44:34;7.70;;;4.70;;
64868;SDS011;51349;52.424;10.840;2023-04-03T19:49:35;5.03;;;3.63;;
64868;SDS011;51349;52.424;10.840;2023-04-03T19:54:36;3.63;;;2.90;;
64868;SDS011;51349;52.424;10.840;2023-04-03T19:59:37;5.43;;;3.57;;
64868;SDS011;51349;52.424;10.840;2023-04-03T20:04:37;5.27;;;3.17;;
64868;SDS011;51349;52.424;10.840;2023-04-03T20:09:38;7.83;;;4.60;;
64868;SDS011;51349;52.424;10.840;2023-04-03T20:14:39;4.57;;;4.00;;
64868;SDS011;51349;52.424;10.840;2023-04-03T20:19:40;3.33;;;2.90;;
64868;SDS011;51349;52.424;10.840;2023-04-03T20:24:40;4.20;;;3.00;;
64868;SDS011;51349;52.424;10.840;2023-04-03T20:29:41;4.13;;;2.70;;
64868;SDS011;51349;52.424;10.840;2023-04-03T20:34:42;5.60;;;3.60;;
64868;SDS011;51349;52.424;10.840;2023-04-03T20:39:43;4.77;;;2.60;;
64868;SDS011;51349;52.424;10.840;2023-04-03T20:44:44;3.60;;;2.80;;
64868;SDS011;51349;52.424;10.840;2023-04-03T20:49:45;6.10;;;3.50;;
64868;SDS011;51349;52.424;10.840;2023-04-03T20:54:45;4.07;;;2.53;;
64868;SDS011;51349;52.424;10.840;2023-04-03T20:59:46;6.77;;;5.07;;
64868;SDS011;51349;52.424;10.840;2023-04-03T21:04:51;7.60;;;5.23;;
64868;SDS011;51349;52.424;10.840;2023-04-03T21:20:45;4.87;;;3.80;;
64868;SDS011;51349;52.424;10.840;2023-04-03T21:25:47;8.10;;;5.33;;
64868;SDS011;51349;52.424;10.840;2023-04-03T21:30:48;7.63;;;4.93;;
64868;SDS011;51349;52.424;10.840;2023-04-03T21:35:48;4.90;;;4.40;;
64868;SDS011;51349;52.424;10.840;2023-04-03T21:40:56;5.97;;;4.17;;
64868;SDS011;51349;52.424;10.840;2023-04-03T21:45:57;7.63;;;4.27;;
64868;SDS011;51349;52.424;10.840;2023-04-03T21:51:04;6.40;;;3.53;;
64868;SDS011;51349;52.424;10.840;2023-04-03T21:56:05;8.00;;;3.47;;
64868;SDS011;51349;52.424;10.840;2023-04-03T22:01:07;8.57;;;3.60;;
64868;SDS011;51349;52.424;10.840;2023-04-03T22:06:09;5.67;;;3.33;;
64868;SDS011;51349;52.424;10.840;2023-04-03T22:11:12;4.83;;;3.37;;
64868;SDS011;51349;52.424;10.840;2023-04-03T22:16:13;6.17;;;3.07;;
64868;SDS011;51349;52.424;10.840;2023-04-03T22:21:14;6.20;;;3.13;;
64868;SDS011;51349;52.424;10.840;2023-04-03T22:26:15;8.30;;;3.07;;
64868;SDS011;51349;52.424;10.840;2023-04-03T22:31:16;3.60;;;3.00;;
64868;SDS011;51349;52.424;10.840;2023-04-03T22:36:17;3.73;;;3.17;;
64868;SDS011;51349;52.424;10.840;2023-04-03T22:41:17;4.27;;;3.00;;
64868;SDS011;51349;52.424;10.840;2023-04-03T22:46:18;5.20;;;2.90;;
64868;SDS011;51349;52.424;10.840;2023-04-03T22:51:19;4.50;;;2.90;;
64868;SDS011;51349;52.424;10.840;2023-04-03T22:56:20;4.23;;;2.53;;
64868;SDS011;51349;52.424;10.840;2023-04-03T23:01:20;4.17;;;2.97;;
64868;SDS011;51349;52.424;10.840;2023-04-03T23:06:23;3.50;;;2.70;;
64868;SDS011;51349;52.424;10.840;2023-04-03T23:11:23;3.63;;;2.67;;
64868;SDS011;51349;52.424;10.840;2023-04-03T23:16:24;3.07;;;2.77;;
64868;SDS011;51349;52.424;10.840;2023-04-03T23:21:24;6.00;;;2.90;;
64868;SDS011;51349;52.424;10.840;2023-04-03T23:26:25;3.43;;;3.00;;
64868;SDS011;51349;52.424;10.840;2023-04-03T23:31:26;3.80;;;3.00;;
64868;SDS011;51349;52.424;10.840;2023-04-03T23:36:26;3.83;;;3.07;;
64868;SDS011;51349;52.424;10.840;2023-04-03T23:41:30;4.07;;;3.20;;
64868;SDS011;51349;52.424;10.840;2023-04-03T23:46:31;3.43;;;2.63;;
64868;SDS011;51349;52.424;10.840;2023-04-03T23:51:31;4.93;;;2.97;;
64868;SDS011;51349;52.424;10.840;2023-04-03T23:56:32;5.17;;;2.93;;
